createdAt,value
2023-06-16T00:00:52.588Z,54.72
2023-06-16T00:06:21.325Z,54.45
2023-06-16T00:11:29.206Z,54.51
2023-06-16T00:16:37.856Z,54.54
2023-06-16T00:21:47.423Z,54.65
2023-06-16T00:26:54.862Z,54.78
2023-06-16T00:32:02.396Z,54.65
2023-06-16T00:37:09.683Z,54.62
2023-06-16T00:42:16.869Z,54.62
2023-06-16T00:47:24.354Z,54.53
2023-06-16T00:52:34.254Z,54.69
2023-06-16T00:57:42.071Z,54.77
2023-06-16T01:02:49.553Z,54.64
2023-06-16T01:08:01.022Z,54.70
2023-06-16T01:13:10.569Z,54.70
2023-06-16T01:18:24.659Z,54.68
2023-06-16T01:23:39.319Z,54.50
2023-06-16T01:28:47.260Z,54.67
2023-06-16T01:33:55.128Z,54.66
2023-06-16T01:39:02.840Z,54.89
2023-06-16T01:44:10.444Z,54.69
2023-06-16T01:49:17.909Z,54.68
2023-06-16T01:54:25.125Z,54.71
2023-06-16T01:59:32.435Z,54.68
2023-06-16T02:04:43.527Z,54.67
2023-06-16T02:09:51.463Z,54.84
2023-06-16T02:14:59.005Z,54.65
2023-06-16T02:20:08.553Z,54.79
2023-06-16T02:25:15.993Z,54.81
2023-06-16T02:30:23.592Z,54.79
2023-06-16T02:35:30.913Z,54.77
2023-06-16T02:40:38.625Z,54.70
2023-06-16T02:45:45.906Z,54.84
2023-06-16T02:50:53.433Z,54.69
2023-06-16T02:56:01.022Z,55.00
2023-06-16T03:01:08.416Z,54.68
2023-06-16T03:06:15.727Z,54.51
2023-06-16T03:11:23.114Z,54.66
2023-06-16T03:16:30.388Z,55.01
2023-06-16T03:21:38.814Z,54.84
2023-06-16T03:26:46.394Z,54.77
2023-06-16T03:31:53.684Z,54.76
2023-06-16T03:37:01.418Z,54.85
2023-06-16T03:42:09.145Z,54.67
2023-06-16T03:47:16.569Z,54.78
2023-06-16T03:52:24.212Z,54.76
2023-06-16T03:57:31.452Z,54.65
2023-06-16T04:02:38.841Z,54.95
2023-06-16T04:07:46.195Z,54.73
2023-06-16T04:12:53.704Z,54.69
2023-06-16T04:18:01.340Z,54.68
2023-06-16T04:23:11.054Z,54.74
2023-06-16T04:28:19.163Z,54.61
2023-06-16T04:33:26.501Z,54.72
2023-06-16T04:38:34.081Z,54.83
2023-06-16T04:43:41.253Z,54.69
2023-06-16T04:48:48.378Z,54.59
2023-06-16T04:53:56.445Z,54.85
2023-06-16T04:59:03.599Z,54.72
2023-06-16T05:04:11.448Z,54.77
2023-06-16T05:09:18.659Z,54.62
2023-06-16T05:14:26.389Z,54.50
2023-06-16T05:19:33.795Z,54.63
2023-06-16T05:24:41.539Z,54.59
2023-06-16T05:29:48.879Z,54.75
2023-06-16T05:34:56.538Z,54.70
2023-06-16T05:40:03.755Z,54.68
2023-06-16T05:45:11.652Z,54.60
2023-06-16T05:50:19.504Z,54.80
2023-06-16T05:55:28.024Z,54.66
2023-06-16T06:00:35.370Z,54.70
2023-06-16T06:05:42.664Z,54.56
2023-06-16T06:10:49.662Z,54.76
2023-06-16T06:15:57.033Z,54.66
2023-06-16T06:21:04.032Z,54.78
2023-06-16T06:26:10.992Z,54.86
2023-06-16T06:31:18.463Z,54.97
2023-06-16T06:36:27.084Z,54.85
2023-06-16T06:41:34.917Z,54.84
2023-06-16T06:46:42.319Z,54.64
2023-06-16T06:51:49.712Z,54.66
2023-06-16T06:56:57.533Z,54.82
2023-06-16T07:02:05.080Z,54.60
2023-06-16T07:07:12.453Z,54.79
2023-06-16T07:12:20.093Z,54.88
2023-06-16T07:17:27.686Z,54.72
2023-06-16T07:22:36.528Z,54.58
2023-06-16T07:27:45.857Z,54.82
2023-06-16T07:32:53.186Z,54.65
2023-06-16T07:38:00.364Z,54.71
2023-06-16T07:43:08.209Z,54.51
2023-06-16T07:48:15.638Z,54.52
2023-06-16T07:53:23.222Z,54.74
2023-06-16T07:58:31.014Z,54.49
2023-06-16T08:03:38.299Z,54.58
2023-06-16T08:08:45.779Z,54.48
2023-06-16T08:13:53.913Z,54.71
2023-06-16T08:19:02.029Z,54.66
2023-06-16T08:24:09.523Z,54.61
2023-06-16T08:29:17.127Z,54.63
2023-06-16T08:34:24.534Z,54.45
2023-06-16T08:39:32.251Z,54.68
2023-06-16T08:44:41.510Z,54.45
2023-06-16T08:49:54.018Z,54.45
2023-06-16T08:55:03.188Z,54.56
2023-06-16T09:00:12.260Z,54.55
2023-06-16T09:05:20.051Z,54.53
2023-06-16T09:10:27.497Z,54.61
2023-06-16T09:15:37.104Z,54.51
2023-06-16T09:20:54.941Z,54.55
2023-06-16T09:26:02.183Z,54.49
2023-06-16T09:31:13.391Z,54.46
2023-06-16T09:36:29.695Z,54.67
2023-06-16T09:41:38.025Z,54.56
2023-06-16T09:46:46.203Z,54.60
2023-06-16T09:51:56.824Z,54.60
2023-06-16T09:57:04.226Z,54.69
2023-06-16T10:02:12.283Z,54.68
2023-06-16T10:07:20.484Z,54.52
2023-06-16T10:12:28.606Z,54.73
2023-06-16T10:17:35.576Z,54.54
2023-06-16T10:22:43.126Z,54.64
2023-06-16T10:27:52.036Z,54.72
2023-06-16T10:32:59.850Z,54.47
2023-06-16T10:38:07.176Z,54.35
2023-06-16T10:43:26.401Z,54.42
2023-06-16T10:48:53.870Z,54.36
2023-06-16T10:54:01.046Z,54.38
2023-06-16T10:59:17.856Z,54.46
2023-06-16T11:04:24.877Z,54.28
2023-06-16T11:09:32.284Z,54.09
2023-06-16T11:14:39.189Z,54.44
2023-06-16T11:19:46.675Z,54.20
2023-06-16T11:24:53.775Z,54.27
2023-06-16T11:30:01.694Z,54.24
2023-06-16T11:35:09.504Z,54.24
2023-06-16T11:40:19.048Z,54.26
2023-06-16T11:45:27.366Z,54.18
2023-06-16T11:50:35.054Z,54.12
2023-06-16T11:55:42.236Z,54.10
2023-06-16T12:00:50.241Z,54.23
2023-06-16T12:05:58.361Z,54.18
2023-06-16T12:11:06.864Z,54.26
2023-06-16T12:16:15.322Z,54.42
2023-06-16T12:21:23.953Z,54.11
2023-06-16T12:26:32.329Z,54.18
2023-06-16T12:31:39.656Z,54.42
2023-06-16T12:36:48.715Z,54.40
2023-06-16T12:41:59.399Z,54.32
2023-06-16T12:47:07.565Z,54.27
2023-06-16T12:52:15.659Z,54.33
2023-06-16T12:57:23.798Z,54.49
2023-06-16T13:02:31.154Z,54.32
2023-06-16T13:07:38.461Z,54.44
2023-06-16T13:12:45.614Z,54.00
2023-06-16T13:17:53.361Z,54.37
2023-06-16T13:23:00.878Z,54.24
2023-06-16T13:28:08.449Z,54.19
2023-06-16T13:33:15.671Z,53.76
2023-06-16T13:38:23.093Z,53.97
2023-06-16T13:43:32.193Z,53.72
2023-06-16T13:48:40.537Z,53.77
2023-06-16T13:53:47.943Z,53.98
2023-06-16T13:58:55.276Z,54.11
2023-06-16T14:04:02.972Z,53.74
2023-06-16T14:09:10.424Z,53.76
2023-06-16T14:14:17.850Z,54.07
2023-06-16T14:19:27.497Z,53.95
2023-06-16T14:24:37.185Z,53.92
2023-06-16T14:29:44.866Z,54.08
2023-06-16T14:34:52.391Z,54.09
2023-06-16T14:39:59.524Z,54.02
2023-06-16T14:45:15.867Z,54.05
2023-06-16T14:50:24.503Z,53.74
2023-06-16T14:55:31.694Z,53.71
2023-06-16T15:00:39.315Z,53.70
2023-06-16T15:05:46.658Z,53.82
2023-06-16T15:10:53.680Z,53.92
2023-06-16T15:16:01.793Z,54.02
2023-06-16T15:21:09.825Z,53.77
2023-06-16T15:26:17.333Z,54.00
2023-06-16T15:31:24.680Z,53.83
2023-06-16T15:36:31.959Z,53.94
2023-06-16T15:41:39.175Z,53.86
2023-06-16T15:46:46.807Z,54.09
2023-06-16T15:51:53.739Z,53.89
2023-06-16T15:57:01.501Z,53.93
2023-06-16T16:02:09.779Z,53.95
2023-06-16T16:07:17.462Z,53.84
2023-06-16T16:12:24.992Z,53.95
2023-06-16T16:17:32.436Z,54.05
2023-06-16T16:22:39.665Z,53.89
2023-06-16T16:27:46.900Z,53.87
2023-06-16T16:32:53.861Z,53.92
2023-06-16T16:38:01.235Z,54.10
2023-06-16T16:43:09.845Z,54.16
2023-06-16T16:48:17.884Z,53.99
2023-06-16T16:53:25.272Z,54.10
2023-06-16T16:58:32.904Z,54.21
2023-06-16T17:03:40.252Z,54.17
2023-06-16T17:08:47.605Z,54.08
2023-06-16T17:13:54.948Z,54.11
2023-06-16T17:19:02.139Z,54.41
2023-06-16T17:24:09.535Z,54.22
2023-06-16T17:29:16.977Z,54.34
2023-06-16T17:34:24.718Z,54.34
2023-06-16T17:39:32.826Z,54.27
2023-06-16T17:44:40.104Z,54.23
2023-06-16T17:49:47.096Z,54.40
2023-06-16T17:54:54.064Z,54.38
2023-06-16T18:00:01.416Z,54.34
2023-06-16T18:05:09.294Z,54.37
2023-06-16T18:10:16.435Z,54.39
2023-06-16T18:15:23.905Z,54.46
2023-06-16T18:20:31.488Z,54.64
2023-06-16T18:25:39.014Z,54.66
2023-06-16T18:30:46.446Z,54.42
2023-06-16T18:35:53.437Z,54.63
2023-06-16T18:41:00.869Z,54.54
2023-06-16T18:46:08.424Z,54.61
2023-06-16T18:51:15.740Z,54.69
2023-06-16T18:56:22.971Z,54.45
2023-06-16T19:01:31.079Z,54.52
2023-06-16T19:06:39.391Z,54.40
2023-06-16T19:11:46.837Z,54.59
2023-06-16T19:16:53.893Z,54.79
2023-06-16T19:22:01.062Z,54.57
2023-06-16T19:27:08.824Z,54.46
2023-06-16T19:32:16.233Z,54.66
2023-06-16T19:37:23.783Z,54.62
2023-06-16T19:42:31.319Z,54.35
2023-06-16T19:47:39.177Z,54.48
2023-06-16T19:52:46.349Z,54.80
2023-06-16T19:57:53.621Z,54.69
2023-06-16T20:03:00.734Z,54.62
2023-06-16T20:08:08.338Z,54.66
2023-06-16T20:13:15.530Z,54.71
2023-06-16T20:18:22.796Z,54.57
2023-06-16T20:23:30.834Z,54.68
2023-06-16T20:28:38.264Z,54.62
2023-06-16T20:33:45.400Z,54.58
2023-06-16T20:38:53.117Z,54.45
2023-06-16T20:44:00.636Z,54.61
2023-06-16T20:49:10.308Z,54.57
2023-06-16T20:54:17.413Z,54.63
2023-06-16T20:59:24.729Z,54.61
2023-06-16T21:04:32.208Z,54.62
2023-06-16T21:09:41.829Z,54.51
2023-06-16T21:14:49.430Z,54.60
2023-06-16T21:19:57.152Z,54.68
2023-06-16T21:25:05.448Z,54.59
2023-06-16T21:30:13.332Z,54.59
2023-06-16T21:35:21.377Z,54.64
2023-06-16T21:40:28.673Z,54.73
2023-06-16T21:45:36.460Z,54.68
2023-06-16T21:50:43.896Z,54.88
2023-06-16T21:55:51.349Z,54.65
2023-06-16T22:00:59.488Z,54.57
2023-06-16T22:06:06.804Z,54.66
2023-06-16T22:11:14.240Z,54.65
2023-06-16T22:16:22.032Z,54.69
2023-06-16T22:21:29.262Z,54.83
2023-06-16T22:26:36.900Z,54.77
2023-06-16T22:31:44.894Z,54.76
2023-06-16T22:36:55.419Z,54.82
2023-06-16T22:42:02.760Z,54.63
2023-06-16T22:47:10.375Z,54.84
2023-06-16T22:52:17.846Z,54.79
2023-06-16T22:57:25.145Z,54.79
2023-06-16T23:02:32.489Z,54.62
2023-06-16T23:07:39.973Z,54.59
2023-06-16T23:12:47.368Z,54.53
2023-06-16T23:17:54.820Z,54.81
2023-06-16T23:23:04.566Z,54.67
2023-06-16T23:28:11.971Z,54.77
2023-06-16T23:33:21.912Z,54.82
2023-06-16T23:38:29.279Z,54.52
2023-06-16T23:43:36.397Z,54.72
2023-06-16T23:48:43.558Z,54.75
2023-06-16T23:53:50.932Z,54.78
2023-06-16T23:58:58.419Z,54.85
